sensor_id;sensor_type;location;lat;lon;timestamp;P1;durP1;ratioP1;P2;durP2;ratioP2
25231;SDS011;13176;51.140;6.290;2022-08-01T00:01:57;70.55;;;66.65;;
25231;SDS011;13176;51.140;6.290;2022-08-01T00:04:24;73.50;;;69.40;;
25231;SDS011;13176;51.140;6.290;2022-08-01T00:06:50;66.82;;;63.13;;
25231;SDS011;13176;51.140;6.290;2022-08-01T00:09:17;67.07;;;63.38;;
25231;SDS011;13176;51.140;6.290;2022-08-01T00:11:49;62.38;;;58.92;;
25231;SDS011;13176;51.140;6.290;2022-08-01T00:14:25;67.30;;;63.60;;
25231;SDS011;13176;51.140;6.290;2022-08-01T00:16:58;67.70;;;63.72;;
25231;SDS011;13176;51.140;6.290;2022-08-01T00:19:32;63.30;;;59.85;;
25231;SDS011;13176;51.140;6.290;2022-08-01T00:21:58;68.80;;;64.90;;
25231;SDS011;13176;51.140;6.290;2022-08-01T00:24:25;68.57;;;64.80;;
25231;SDS011;13176;51.140;6.290;2022-08-01T00:26:51;65.32;;;61.83;;
25231;SDS011;13176;51.140;6.290;2022-08-01T00:29:18;69.32;;;65.35;;
25231;SDS011;13176;51.140;6.290;2022-08-01T00:32:04;68.75;;;64.65;;
25231;SDS011;13176;51.140;6.290;2022-08-01T00:34:31;65.28;;;61.75;;
25231;SDS011;13176;51.140;6.290;2022-08-01T00:36:58;70.32;;;66.50;;
25231;SDS011;13176;51.140;6.290;2022-08-01T00:39:24;63.20;;;59.65;;
25231;SDS011;13176;51.140;6.290;2022-08-01T00:41:51;67.82;;;63.97;;
25231;SDS011;13176;51.140;6.290;2022-08-01T00:44:25;63.60;;;60.10;;
25231;SDS011;13176;51.140;6.290;2022-08-01T00:46:52;66.22;;;62.45;;
25231;SDS011;13176;51.140;6.290;2022-08-01T00:49:19;66.13;;;62.47;;
25231;SDS011;13176;51.140;6.290;2022-08-01T00:51:45;63.67;;;59.95;;
25231;SDS011;13176;51.140;6.290;2022-08-01T00:54:12;66.43;;;62.83;;
25231;SDS011;13176;51.140;6.290;2022-08-01T00:56:42;66.22;;;62.45;;
25231;SDS011;13176;51.140;6.290;2022-08-01T00:59:09;68.20;;;64.50;;
25231;SDS011;13176;51.140;6.290;2022-08-01T01:01:39;67.47;;;63.78;;
25231;SDS011;13176;51.140;6.290;2022-08-01T01:04:11;67.80;;;63.92;;
25231;SDS011;13176;51.140;6.290;2022-08-01T01:06:44;65.70;;;61.90;;
25231;SDS011;13176;51.140;6.290;2022-08-01T01:12:31;68.47;;;64.68;;
25231;SDS011;13176;51.140;6.290;2022-08-01T01:15:08;65.70;;;62.08;;
25231;SDS011;13176;51.140;6.290;2022-08-01T01:18:02;66.95;;;63.35;;
25231;SDS011;13176;51.140;6.290;2022-08-01T01:20:43;70.47;;;66.43;;
25231;SDS011;13176;51.140;6.290;2022-08-01T01:23:20;63.35;;;59.70;;
25231;SDS011;13176;51.140;6.290;2022-08-01T01:31:24;62.45;;;59.10;;
25231;SDS011;13176;51.140;6.290;2022-08-01T01:33:53;63.85;;;60.35;;
25231;SDS011;13176;51.140;6.290;2022-08-01T01:36:21;65.28;;;61.67;;
25231;SDS011;13176;51.140;6.290;2022-08-01T01:38:50;62.00;;;58.45;;
25231;SDS011;13176;51.140;6.290;2022-08-01T01:41:17;69.15;;;65.10;;
25231;SDS011;13176;51.140;6.290;2022-08-01T01:43:45;66.60;;;62.95;;
25231;SDS011;13176;51.140;6.290;2022-08-01T01:46:13;65.30;;;61.72;;
25231;SDS011;13176;51.140;6.290;2022-08-01T01:48:43;66.43;;;62.72;;
25231;SDS011;13176;51.140;6.290;2022-08-01T01:51:12;65.63;;;61.95;;
25231;SDS011;13176;51.140;6.290;2022-08-01T01:53:40;66.30;;;62.70;;
25231;SDS011;13176;51.140;6.290;2022-08-01T01:56:09;67.03;;;63.22;;
25231;SDS011;13176;51.140;6.290;2022-08-01T01:58:37;65.30;;;61.67;;
25231;SDS011;13176;51.140;6.290;2022-08-01T02:01:05;63.53;;;60.13;;
25231;SDS011;13176;51.140;6.290;2022-08-01T02:03:40;65.75;;;62.13;;
25231;SDS011;13176;51.140;6.290;2022-08-01T02:06:08;64.57;;;61.08;;
25231;SDS011;13176;51.140;6.290;2022-08-01T02:08:36;64.50;;;60.80;;
25231;SDS011;13176;51.140;6.290;2022-08-01T02:11:04;62.13;;;58.70;;
25231;SDS011;13176;51.140;6.290;2022-08-01T02:13:52;63.33;;;59.72;;
25231;SDS011;13176;51.140;6.290;2022-08-01T02:16:22;64.32;;;60.65;;
25231;SDS011;13176;51.140;6.290;2022-08-01T02:18:52;66.38;;;62.67;;
25231;SDS011;13176;51.140;6.290;2022-08-01T02:21:25;65.65;;;61.80;;
25231;SDS011;13176;51.140;6.290;2022-08-01T02:23:54;66.45;;;62.78;;
25231;SDS011;13176;51.140;6.290;2022-08-01T02:26:30;61.08;;;57.67;;
25231;SDS011;13176;51.140;6.290;2022-08-01T02:28:59;70.47;;;66.50;;
25231;SDS011;13176;51.140;6.290;2022-08-01T02:31:28;59.83;;;56.42;;
25231;SDS011;13176;51.140;6.290;2022-08-01T02:34:02;63.40;;;59.67;;
25231;SDS011;13176;51.140;6.290;2022-08-01T02:36:35;65.05;;;61.25;;
25231;SDS011;13176;51.140;6.290;2022-08-01T02:39:03;69.35;;;65.38;;
25231;SDS011;13176;51.140;6.290;2022-08-01T02:41:36;69.32;;;65.45;;
25231;SDS011;13176;51.140;6.290;2022-08-01T02:44:06;61.88;;;58.58;;
25231;SDS011;13176;51.140;6.290;2022-08-01T02:46:39;69.93;;;65.90;;
25231;SDS011;13176;51.140;6.290;2022-08-01T02:49:17;66.72;;;62.85;;
25231;SDS011;13176;51.140;6.290;2022-08-01T02:51:47;65.72;;;61.85;;
25231;SDS011;13176;51.140;6.290;2022-08-01T02:54:15;68.20;;;64.32;;
25231;SDS011;13176;51.140;6.290;2022-08-01T02:56:44;70.38;;;66.20;;
25231;SDS011;13176;51.140;6.290;2022-08-01T02:59:13;70.88;;;66.80;;
25231;SDS011;13176;51.140;6.290;2022-08-01T03:01:47;68.75;;;64.82;;
25231;SDS011;13176;51.140;6.290;2022-08-01T03:04:15;73.57;;;69.43;;
25231;SDS011;13176;51.140;6.290;2022-08-01T03:06:44;70.55;;;66.63;;
25231;SDS011;13176;51.140;6.290;2022-08-01T03:09:11;74.72;;;70.43;;
25231;SDS011;13176;51.140;6.290;2022-08-01T03:11:39;73.38;;;69.28;;
25231;SDS011;13176;51.140;6.290;2022-08-01T03:14:07;75.43;;;71.18;;
25231;SDS011;13176;51.140;6.290;2022-08-01T03:16:36;73.90;;;69.70;;
25231;SDS011;13176;51.140;6.290;2022-08-01T03:19:06;75.97;;;71.70;;
25231;SDS011;13176;51.140;6.290;2022-08-01T03:21:35;75.63;;;71.22;;
25231;SDS011;13176;51.140;6.290;2022-08-01T03:24:05;72.47;;;68.32;;
25231;SDS011;13176;51.140;6.290;2022-08-01T03:26:34;74.55;;;70.05;;
25231;SDS011;13176;51.140;6.290;2022-08-01T03:29:09;77.63;;;73.25;;
25231;SDS011;13176;51.140;6.290;2022-08-01T03:31:38;74.03;;;69.80;;
25231;SDS011;13176;51.140;6.290;2022-08-01T03:34:09;76.03;;;71.55;;
25231;SDS011;13176;51.140;6.290;2022-08-01T03:36:39;76.10;;;71.75;;
25231;SDS011;13176;51.140;6.290;2022-08-01T03:39:31;79.85;;;75.22;;
25231;SDS011;13176;51.140;6.290;2022-08-01T03:42:07;76.97;;;72.47;;
25231;SDS011;13176;51.140;6.290;2022-08-01T03:44:40;79.80;;;75.20;;
25231;SDS011;13176;51.140;6.290;2022-08-01T03:47:07;81.13;;;76.22;;
25231;SDS011;13176;51.140;6.290;2022-08-01T03:49:37;78.90;;;74.18;;
25231;SDS011;13176;51.140;6.290;2022-08-01T03:52:07;77.68;;;73.10;;
25231;SDS011;13176;51.140;6.290;2022-08-01T03:54:40;74.03;;;69.65;;
25231;SDS011;13176;51.140;6.290;2022-08-01T03:59:58;71.90;;;67.57;;
25231;SDS011;13176;51.140;6.290;2022-08-01T04:02:26;83.45;;;78.53;;
25231;SDS011;13176;51.140;6.290;2022-08-01T04:04:53;84.28;;;79.32;;
25231;SDS011;13176;51.140;6.290;2022-08-01T04:07:25;80.43;;;75.60;;
25231;SDS011;13176;51.140;6.290;2022-08-01T04:09:53;85.32;;;80.38;;
25231;SDS011;13176;51.140;6.290;2022-08-01T04:12:20;85.22;;;80.15;;
25231;SDS011;13176;51.140;6.290;2022-08-01T04:14:47;88.18;;;82.90;;
25231;SDS011;13176;51.140;6.290;2022-08-01T04:17:15;86.57;;;81.38;;
25231;SDS011;13176;51.140;6.290;2022-08-01T04:19:42;84.55;;;79.45;;
25231;SDS011;13176;51.140;6.290;2022-08-01T04:22:10;86.90;;;81.57;;
25231;SDS011;13176;51.140;6.290;2022-08-01T04:24:39;89.60;;;84.10;;
25231;SDS011;13176;51.140;6.290;2022-08-01T04:27:09;85.82;;;80.70;;
25231;SDS011;13176;51.140;6.290;2022-08-01T04:29:39;88.82;;;83.32;;
25231;SDS011;13176;51.140;6.290;2022-08-01T04:32:08;82.63;;;77.45;;
25231;SDS011;13176;51.140;6.290;2022-08-01T04:34:39;87.30;;;82.20;;
25231;SDS011;13176;51.140;6.290;2022-08-01T04:37:08;85.03;;;79.85;;
25231;SDS011;13176;51.140;6.290;2022-08-01T04:39:38;86.78;;;81.65;;
25231;SDS011;13176;51.140;6.290;2022-08-01T04:42:16;89.60;;;83.95;;
25231;SDS011;13176;51.140;6.290;2022-08-01T04:47:17;80.90;;;76.05;;
25231;SDS011;13176;51.140;6.290;2022-08-01T04:49:45;86.18;;;80.82;;
25231;SDS011;13176;51.140;6.290;2022-08-01T04:52:14;85.95;;;80.93;;
25231;SDS011;13176;51.140;6.290;2022-08-01T04:54:46;88.45;;;82.93;;
25231;SDS011;13176;51.140;6.290;2022-08-01T04:57:13;91.47;;;85.78;;
25231;SDS011;13176;51.140;6.290;2022-08-01T04:59:41;94.00;;;88.30;;
25231;SDS011;13176;51.140;6.290;2022-08-01T05:04:36;94.25;;;87.97;;
25231;SDS011;13176;51.140;6.290;2022-08-01T05:07:03;88.93;;;83.50;;
25231;SDS011;13176;51.140;6.290;2022-08-01T05:09:30;98.93;;;92.85;;
25231;SDS011;13176;51.140;6.290;2022-08-01T05:11:58;94.72;;;88.93;;
25231;SDS011;13176;51.140;6.290;2022-08-01T05:14:27;102.18;;;95.78;;
25231;SDS011;13176;51.140;6.290;2022-08-01T05:16:54;94.85;;;89.13;;
25231;SDS011;13176;51.140;6.290;2022-08-01T05:19:23;94.60;;;88.63;;
25231;SDS011;13176;51.140;6.290;2022-08-01T05:21:50;97.28;;;91.35;;
25231;SDS011;13176;51.140;6.290;2022-08-01T05:24:16;99.72;;;93.18;;
25231;SDS011;13176;51.140;6.290;2022-08-01T05:26:43;99.55;;;93.28;;
25231;SDS011;13176;51.140;6.290;2022-08-01T05:29:09;97.00;;;91.03;;
25231;SDS011;13176;51.140;6.290;2022-08-01T05:31:36;94.88;;;88.93;;
25231;SDS011;13176;51.140;6.290;2022-08-01T05:34:02;93.00;;;87.38;;
25231;SDS011;13176;51.140;6.290;2022-08-01T05:36:29;94.32;;;88.47;;
25231;SDS011;13176;51.140;6.290;2022-08-01T05:38:55;100.40;;;94.22;;
25231;SDS011;13176;51.140;6.290;2022-08-01T05:41:22;94.20;;;88.38;;
25231;SDS011;13176;51.140;6.290;2022-08-01T05:43:48;94.93;;;89.22;;
25231;SDS011;13176;51.140;6.290;2022-08-01T05:46:15;100.35;;;94.15;;
25231;SDS011;13176;51.140;6.290;2022-08-01T05:48:41;95.88;;;89.97;;
25231;SDS011;13176;51.140;6.290;2022-08-01T05:51:08;93.38;;;87.68;;
25231;SDS011;13176;51.140;6.290;2022-08-01T05:53:34;90.90;;;85.38;;
25231;SDS011;13176;51.140;6.290;2022-08-01T05:56:00;91.07;;;85.43;;
25231;SDS011;13176;51.140;6.290;2022-08-01T05:58:28;87.32;;;82.00;;
25231;SDS011;13176;51.140;6.290;2022-08-01T06:00:54;84.88;;;79.57;;
25231;SDS011;13176;51.140;6.290;2022-08-01T06:03:20;83.80;;;78.63;;
25231;SDS011;13176;51.140;6.290;2022-08-01T06:05:47;80.97;;;76.10;;
25231;SDS011;13176;51.140;6.290;2022-08-01T06:08:13;80.78;;;75.47;;
25231;SDS011;13176;51.140;6.290;2022-08-01T06:10:40;84.13;;;78.90;;
25231;SDS011;13176;51.140;6.290;2022-08-01T06:13:06;80.85;;;75.72;;
25231;SDS011;13176;51.140;6.290;2022-08-01T06:15:33;80.97;;;75.95;;
25231;SDS011;13176;51.140;6.290;2022-08-01T06:18:00;83.05;;;77.88;;
25231;SDS011;13176;51.140;6.290;2022-08-01T06:20:26;76.60;;;71.68;;
25231;SDS011;13176;51.140;6.290;2022-08-01T06:22:53;76.28;;;71.50;;
25231;SDS011;13176;51.140;6.290;2022-08-01T06:25:21;80.00;;;74.90;;
25231;SDS011;13176;51.140;6.290;2022-08-01T06:27:48;77.55;;;72.80;;
25231;SDS011;13176;51.140;6.290;2022-08-01T06:30:15;73.07;;;68.53;;
25231;SDS011;13176;51.140;6.290;2022-08-01T06:32:42;77.10;;;72.30;;
25231;SDS011;13176;51.140;6.290;2022-08-01T06:35:08;70.82;;;66.32;;
25231;SDS011;13176;51.140;6.290;2022-08-01T06:37:34;73.57;;;69.03;;
25231;SDS011;13176;51.140;6.290;2022-08-01T06:40:02;71.25;;;66.78;;
25231;SDS011;13176;51.140;6.290;2022-08-01T06:42:29;70.78;;;66.47;;
25231;SDS011;13176;51.140;6.290;2022-08-01T06:44:57;68.35;;;64.10;;
25231;SDS011;13176;51.140;6.290;2022-08-01T06:47:24;63.85;;;59.70;;
25231;SDS011;13176;51.140;6.290;2022-08-01T06:49:50;63.42;;;59.42;;
25231;SDS011;13176;51.140;6.290;2022-08-01T06:52:17;59.35;;;55.75;;
25231;SDS011;13176;51.140;6.290;2022-08-01T06:54:43;54.65;;;51.30;;
25231;SDS011;13176;51.140;6.290;2022-08-01T06:57:09;54.13;;;50.80;;
25231;SDS011;13176;51.140;6.290;2022-08-01T06:59:36;52.33;;;49.05;;
25231;SDS011;13176;51.140;6.290;2022-08-01T07:02:02;53.88;;;50.58;;
25231;SDS011;13176;51.140;6.290;2022-08-01T07:04:29;53.40;;;50.00;;
25231;SDS011;13176;51.140;6.290;2022-08-01T07:06:56;54.40;;;51.05;;
25231;SDS011;13176;51.140;6.290;2022-08-01T07:09:23;52.10;;;49.00;;
25231;SDS011;13176;51.140;6.290;2022-08-01T07:11:50;52.15;;;48.95;;
25231;SDS011;13176;51.140;6.290;2022-08-01T07:14:18;55.03;;;51.65;;
25231;SDS011;13176;51.140;6.290;2022-08-01T07:16:45;57.25;;;53.78;;
25231;SDS011;13176;51.140;6.290;2022-08-01T07:19:12;58.60;;;54.97;;
25231;SDS011;13176;51.140;6.290;2022-08-01T07:21:39;59.25;;;55.72;;
25231;SDS011;13176;51.140;6.290;2022-08-01T07:24:07;70.97;;;66.72;;
25231;SDS011;13176;51.140;6.290;2022-08-01T07:26:43;71.60;;;67.28;;
25231;SDS011;13176;51.140;6.290;2022-08-01T07:29:20;74.25;;;69.85;;
25231;SDS011;13176;51.140;6.290;2022-08-01T07:31:53;73.53;;;69.03;;
25231;SDS011;13176;51.140;6.290;2022-08-01T07:34:21;73.28;;;68.82;;
25231;SDS011;13176;51.140;6.290;2022-08-01T07:36:49;73.18;;;68.80;;
25231;SDS011;13176;51.140;6.290;2022-08-01T07:39:16;76.18;;;71.43;;
25231;SDS011;13176;51.140;6.290;2022-08-01T07:41:42;72.57;;;68.00;;
25231;SDS011;13176;51.140;6.290;2022-08-01T07:44:30;70.85;;;66.75;;
25231;SDS011;13176;51.140;6.290;2022-08-01T07:46:56;80.15;;;75.45;;
25231;SDS011;13176;51.140;6.290;2022-08-01T07:49:23;74.35;;;69.70;;
25231;SDS011;13176;51.140;6.290;2022-08-01T07:51:50;70.05;;;65.43;;
25231;SDS011;13176;51.140;6.290;2022-08-01T07:54:29;77.88;;;73.30;;
25231;SDS011;13176;51.140;6.290;2022-08-01T07:56:59;85.03;;;79.75;;
25231;SDS011;13176;51.140;6.290;2022-08-01T07:59:26;81.22;;;76.30;;
25231;SDS011;13176;51.140;6.290;2022-08-01T08:01:52;77.38;;;72.57;;
25231;SDS011;13176;51.140;6.290;2022-08-01T08:04:19;82.32;;;77.45;;
25231;SDS011;13176;51.140;6.290;2022-08-01T08:06:45;88.03;;;82.93;;
25231;SDS011;13176;51.140;6.290;2022-08-01T08:09:13;85.70;;;80.68;;
25231;SDS011;13176;51.140;6.290;2022-08-01T08:11:41;83.95;;;78.95;;
25231;SDS011;13176;51.140;6.290;2022-08-01T08:14:13;82.15;;;77.28;;
25231;SDS011;13176;51.140;6.290;2022-08-01T08:16:39;85.88;;;80.80;;
25231;SDS011;13176;51.140;6.290;2022-08-01T08:19:06;85.22;;;80.35;;
25231;SDS011;13176;51.140;6.290;2022-08-01T08:21:32;76.85;;;72.40;;
25231;SDS011;13176;51.140;6.290;2022-08-01T08:23:59;75.88;;;71.22;;
25231;SDS011;13176;51.140;6.290;2022-08-01T08:26:44;73.00;;;68.70;;
25231;SDS011;13176;51.140;6.290;2022-08-01T08:29:17;78.50;;;73.85;;
25231;SDS011;13176;51.140;6.290;2022-08-01T08:31:43;93.63;;;87.88;;
25231;SDS011;13176;51.140;6.290;2022-08-01T08:34:17;91.93;;;86.40;;
25231;SDS011;13176;51.140;6.290;2022-08-01T08:36:44;95.43;;;89.68;;
25231;SDS011;13176;51.140;6.290;2022-08-01T08:39:13;85.88;;;80.90;;
25231;SDS011;13176;51.140;6.290;2022-08-01T08:41:42;85.28;;;80.07;;
25231;SDS011;13176;51.140;6.290;2022-08-01T08:44:14;78.57;;;74.05;;
25231;SDS011;13176;51.140;6.290;2022-08-01T08:46:43;85.13;;;80.07;;
25231;SDS011;13176;51.140;6.290;2022-08-01T08:49:12;84.57;;;79.57;;
25231;SDS011;13176;51.140;6.290;2022-08-01T08:51:42;61.65;;;58.08;;
25231;SDS011;13176;51.140;6.290;2022-08-01T08:54:11;57.90;;;54.63;;
25231;SDS011;13176;51.140;6.290;2022-08-01T08:56:39;59.88;;;56.42;;
25231;SDS011;13176;51.140;6.290;2022-08-01T08:59:07;61.05;;;57.65;;
25231;SDS011;13176;51.140;6.290;2022-08-01T09:01:33;49.50;;;46.50;;
25231;SDS011;13176;51.140;6.290;2022-08-01T09:04:04;50.88;;;47.85;;
25231;SDS011;13176;51.140;6.290;2022-08-01T09:06:31;55.08;;;51.97;;
25231;SDS011;13176;51.140;6.290;2022-08-01T09:08:58;53.85;;;50.53;;
25231;SDS011;13176;51.140;6.290;2022-08-01T09:11:26;58.78;;;55.25;;
25231;SDS011;13176;51.140;6.290;2022-08-01T09:14:07;58.78;;;55.38;;
25231;SDS011;13176;51.140;6.290;2022-08-01T09:16:42;55.88;;;52.72;;
25231;SDS011;13176;51.140;6.290;2022-08-01T09:19:15;59.22;;;55.47;;
25231;SDS011;13176;51.140;6.290;2022-08-01T09:22:07;60.38;;;56.88;;
25231;SDS011;13176;51.140;6.290;2022-08-01T09:24:36;60.17;;;56.65;;
25231;SDS011;13176;51.140;6.290;2022-08-01T09:27:16;60.10;;;56.60;;
25231;SDS011;13176;51.140;6.290;2022-08-01T09:29:48;57.05;;;53.83;;
25231;SDS011;13176;51.140;6.290;2022-08-01T09:32:28;40.70;;;38.28;;
25231;SDS011;13176;51.140;6.290;2022-08-01T09:38:19;39.83;;;37.63;;
25231;SDS011;13176;51.140;6.290;2022-08-01T09:43:24;42.63;;;40.17;;
25231;SDS011;13176;51.140;6.290;2022-08-01T09:45:53;40.95;;;38.55;;
25231;SDS011;13176;51.140;6.290;2022-08-01T09:48:23;42.70;;;40.13;;
25231;SDS011;13176;51.140;6.290;2022-08-01T09:50:54;44.22;;;41.63;;
25231;SDS011;13176;51.140;6.290;2022-08-01T09:53:43;43.72;;;41.30;;
25231;SDS011;13176;51.140;6.290;2022-08-01T09:56:17;41.10;;;38.55;;
25231;SDS011;13176;51.140;6.290;2022-08-01T10:01:27;29.95;;;28.15;;
25231;SDS011;13176;51.140;6.290;2022-08-01T10:04:06;32.42;;;30.42;;
25231;SDS011;13176;51.140;6.290;2022-08-01T10:06:37;41.35;;;38.95;;
25231;SDS011;13176;51.140;6.290;2022-08-01T10:09:07;41.70;;;39.40;;
25231;SDS011;13176;51.140;6.290;2022-08-01T10:11:33;43.03;;;40.53;;
25231;SDS011;13176;51.140;6.290;2022-08-01T10:14:05;42.35;;;40.05;;
25231;SDS011;13176;51.140;6.290;2022-08-01T10:16:33;41.53;;;39.20;;
25231;SDS011;13176;51.140;6.290;2022-08-01T10:19:05;40.95;;;38.65;;
25231;SDS011;13176;51.140;6.290;2022-08-01T10:21:40;41.95;;;39.55;;
25231;SDS011;13176;51.140;6.290;2022-08-01T10:24:24;41.88;;;39.40;;
25231;SDS011;13176;51.140;6.290;2022-08-01T10:27:01;35.70;;;33.70;;
25231;SDS011;13176;51.140;6.290;2022-08-01T10:29:36;42.72;;;40.33;;
25231;SDS011;13176;51.140;6.290;2022-08-01T10:32:32;37.97;;;35.83;;
25231;SDS011;13176;51.140;6.290;2022-08-01T10:35:01;42.25;;;39.90;;
25231;SDS011;13176;51.140;6.290;2022-08-01T10:37:33;42.63;;;40.30;;
25231;SDS011;13176;51.140;6.290;2022-08-01T10:40:17;41.58;;;38.88;;
25231;SDS011;13176;51.140;6.290;2022-08-01T10:42:56;44.75;;;42.25;;
25231;SDS011;13176;51.140;6.290;2022-08-01T10:45:23;28.08;;;26.58;;
25231;SDS011;13176;51.140;6.290;2022-08-01T10:48:06;32.20;;;30.40;;
25231;SDS011;13176;51.140;6.290;2022-08-01T10:50:47;32.53;;;30.25;;
25231;SDS011;13176;51.140;6.290;2022-08-01T10:53:16;23.48;;;22.17;;
25231;SDS011;13176;51.140;6.290;2022-08-01T11:03:41;32.08;;;30.23;;
25231;SDS011;13176;51.140;6.290;2022-08-01T11:06:24;49.78;;;46.88;;
25231;SDS011;13176;51.140;6.290;2022-08-01T11:08:55;45.50;;;43.00;;
25231;SDS011;13176;51.140;6.290;2022-08-01T11:11:28;41.08;;;38.85;;
25231;SDS011;13176;51.140;6.290;2022-08-01T11:14:03;42.85;;;40.55;;
25231;SDS011;13176;51.140;6.290;2022-08-01T11:16:39;41.17;;;38.88;;
25231;SDS011;13176;51.140;6.290;2022-08-01T11:19:08;41.83;;;39.42;;
25231;SDS011;13176;51.140;6.290;2022-08-01T11:35:36;20.30;;;19.10;;
25231;SDS011;13176;51.140;6.290;2022-08-01T11:38:22;18.83;;;17.80;;
25231;SDS011;13176;51.140;6.290;2022-08-01T11:52:05;14.95;;;14.05;;
25231;SDS011;13176;51.140;6.290;2022-08-01T11:54:37;17.40;;;16.50;;
25231;SDS011;13176;51.140;6.290;2022-08-01T11:57:16;19.20;;;18.25;;
25231;SDS011;13176;51.140;6.290;2022-08-01T12:00:00;19.70;;;18.77;;
25231;SDS011;13176;51.140;6.290;2022-08-01T12:02:34;20.75;;;19.75;;
25231;SDS011;13176;51.140;6.290;2022-08-01T12:05:02;20.08;;;19.08;;
25231;SDS011;13176;51.140;6.290;2022-08-01T12:07:30;22.08;;;20.88;;
25231;SDS011;13176;51.140;6.290;2022-08-01T12:09:59;17.80;;;17.00;;
25231;SDS011;13176;51.140;6.290;2022-08-01T12:12:29;15.98;;;15.25;;
25231;SDS011;13176;51.140;6.290;2022-08-01T12:14:57;18.02;;;17.02;;
25231;SDS011;13176;51.140;6.290;2022-08-01T12:17:36;16.67;;;15.85;;
25231;SDS011;13176;51.140;6.290;2022-08-01T12:20:05;15.30;;;14.20;;
25231;SDS011;13176;51.140;6.290;2022-08-01T12:22:34;14.68;;;13.88;;
25231;SDS011;13176;51.140;6.290;2022-08-01T12:25:10;15.52;;;14.60;;
25231;SDS011;13176;51.140;6.290;2022-08-01T12:27:40;15.18;;;14.38;;
25231;SDS011;13176;51.140;6.290;2022-08-01T12:30:11;12.88;;;12.27;;
25231;SDS011;13176;51.140;6.290;2022-08-01T12:32:52;16.02;;;15.23;;
25231;SDS011;13176;51.140;6.290;2022-08-01T12:35:26;22.17;;;21.08;;
25231;SDS011;13176;51.140;6.290;2022-08-01T12:38:02;13.55;;;12.95;;
25231;SDS011;13176;51.140;6.290;2022-08-01T12:40:33;12.63;;;12.02;;
25231;SDS011;13176;51.140;6.290;2022-08-01T12:43:02;11.10;;;10.30;;
25231;SDS011;13176;51.140;6.290;2022-08-01T12:45:32;11.80;;;11.10;;
25231;SDS011;13176;51.140;6.290;2022-08-01T12:48:01;10.80;;;10.18;;
25231;SDS011;13176;51.140;6.290;2022-08-01T12:50:38;11.25;;;10.73;;
25231;SDS011;13176;51.140;6.290;2022-08-01T12:53:07;11.15;;;10.65;;
25231;SDS011;13176;51.140;6.290;2022-08-01T12:55:52;10.32;;;9.75;;
25231;SDS011;13176;51.140;6.290;2022-08-01T12:58:29;11.20;;;10.68;;
25231;SDS011;13176;51.140;6.290;2022-08-01T13:01:04;13.52;;;12.88;;
25231;SDS011;13176;51.140;6.290;2022-08-01T13:03:32;13.10;;;12.50;;
25231;SDS011;13176;51.140;6.290;2022-08-01T13:05:59;13.07;;;12.27;;
25231;SDS011;13176;51.140;6.290;2022-08-01T13:11:11;14.20;;;13.35;;
25231;SDS011;13176;51.140;6.290;2022-08-01T13:13:43;18.80;;;17.80;;
25231;SDS011;13176;51.140;6.290;2022-08-01T13:16:18;19.30;;;18.40;;
25231;SDS011;13176;51.140;6.290;2022-08-01T13:19:03;19.77;;;18.38;;
25231;SDS011;13176;51.140;6.290;2022-08-01T13:21:31;14.70;;;14.00;;
25231;SDS011;13176;51.140;6.290;2022-08-01T13:24:22;16.73;;;15.82;;
25231;SDS011;13176;51.140;6.290;2022-08-01T13:26:51;19.58;;;18.55;;
25231;SDS011;13176;51.140;6.290;2022-08-01T13:29:28;13.90;;;13.10;;
25231;SDS011;13176;51.140;6.290;2022-08-01T13:32:13;22.45;;;21.10;;
25231;SDS011;13176;51.140;6.290;2022-08-01T13:35:05;24.08;;;22.67;;
25231;SDS011;13176;51.140;6.290;2022-08-01T13:37:34;21.67;;;20.48;;
25231;SDS011;13176;51.140;6.290;2022-08-01T13:40:04;34.78;;;32.90;;
25231;SDS011;13176;51.140;6.290;2022-08-01T13:42:32;17.63;;;16.73;;
25231;SDS011;13176;51.140;6.290;2022-08-01T13:44:58;15.55;;;14.68;;
25231;SDS011;13176;51.140;6.290;2022-08-01T13:47:25;20.02;;;19.02;;
25231;SDS011;13176;51.140;6.290;2022-08-01T13:49:57;21.90;;;20.80;;
25231;SDS011;13176;51.140;6.290;2022-08-01T13:52:27;18.88;;;17.88;;
25231;SDS011;13176;51.140;6.290;2022-08-01T13:54:53;20.35;;;19.25;;
25231;SDS011;13176;51.140;6.290;2022-08-01T13:57:22;22.63;;;21.38;;
25231;SDS011;13176;51.140;6.290;2022-08-01T13:59:48;23.80;;;22.55;;
25231;SDS011;13176;51.140;6.290;2022-08-01T14:02:15;23.83;;;22.35;;
25231;SDS011;13176;51.140;6.290;2022-08-01T14:04:41;26.30;;;24.88;;
25231;SDS011;13176;51.140;6.290;2022-08-01T14:07:08;22.92;;;21.73;;
25231;SDS011;13176;51.140;6.290;2022-08-01T14:09:40;21.13;;;20.02;;
25231;SDS011;13176;51.140;6.290;2022-08-01T14:12:27;21.88;;;20.58;;
25231;SDS011;13176;51.140;6.290;2022-08-01T14:14:53;22.27;;;21.17;;
25231;SDS011;13176;51.140;6.290;2022-08-01T14:17:19;22.15;;;20.95;;
25231;SDS011;13176;51.140;6.290;2022-08-01T14:19:47;25.13;;;23.83;;
25231;SDS011;13176;51.140;6.290;2022-08-01T14:22:13;23.73;;;22.30;;
25231;SDS011;13176;51.140;6.290;2022-08-01T14:24:39;22.88;;;21.63;;
25231;SDS011;13176;51.140;6.290;2022-08-01T14:27:06;23.42;;;22.20;;
25231;SDS011;13176;51.140;6.290;2022-08-01T14:29:33;24.63;;;22.98;;
25231;SDS011;13176;51.140;6.290;2022-08-01T14:32:19;23.42;;;22.23;;
25231;SDS011;13176;51.140;6.290;2022-08-01T14:34:51;20.35;;;19.15;;
25231;SDS011;13176;51.140;6.290;2022-08-01T14:37:17;23.38;;;22.08;;
25231;SDS011;13176;51.140;6.290;2022-08-01T14:39:43;25.02;;;23.67;;
25231;SDS011;13176;51.140;6.290;2022-08-01T14:42:19;22.13;;;20.83;;
25231;SDS011;13176;51.140;6.290;2022-08-01T14:44:46;20.65;;;19.55;;
25231;SDS011;13176;51.140;6.290;2022-08-01T14:47:15;20.25;;;19.02;;
25231;SDS011;13176;51.140;6.290;2022-08-01T14:49:48;21.42;;;20.08;;
25231;SDS011;13176;51.140;6.290;2022-08-01T14:52:15;24.52;;;23.23;;
25231;SDS011;13176;51.140;6.290;2022-08-01T14:54:41;29.73;;;28.02;;
25231;SDS011;13176;51.140;6.290;2022-08-01T14:57:08;22.73;;;21.48;;
25231;SDS011;13176;51.140;6.290;2022-08-01T14:59:35;22.50;;;21.30;;
25231;SDS011;13176;51.140;6.290;2022-08-01T15:02:02;19.83;;;18.50;;
25231;SDS011;13176;51.140;6.290;2022-08-01T15:04:29;19.90;;;18.70;;
25231;SDS011;13176;51.140;6.290;2022-08-01T15:06:56;16.42;;;15.43;;
25231;SDS011;13176;51.140;6.290;2022-08-01T15:09:23;17.77;;;16.83;;
25231;SDS011;13176;51.140;6.290;2022-08-01T15:11:50;14.93;;;14.13;;
25231;SDS011;13176;51.140;6.290;2022-08-01T15:14:16;16.58;;;15.68;;
25231;SDS011;13176;51.140;6.290;2022-08-01T15:17:02;22.60;;;21.38;;
25231;SDS011;13176;51.140;6.290;2022-08-01T15:19:28;18.45;;;17.55;;
25231;SDS011;13176;51.140;6.290;2022-08-01T15:21:55;25.60;;;24.27;;
25231;SDS011;13176;51.140;6.290;2022-08-01T15:24:21;15.23;;;14.43;;
25231;SDS011;13176;51.140;6.290;2022-08-01T15:26:48;16.52;;;15.73;;
25231;SDS011;13176;51.140;6.290;2022-08-01T15:29:16;26.55;;;25.23;;
25231;SDS011;13176;51.140;6.290;2022-08-01T15:31:43;22.65;;;21.45;;
25231;SDS011;13176;51.140;6.290;2022-08-01T15:34:09;23.30;;;22.10;;
25231;SDS011;13176;51.140;6.290;2022-08-01T15:36:36;15.15;;;14.35;;
25231;SDS011;13176;51.140;6.290;2022-08-01T15:39:09;13.77;;;13.07;;
25231;SDS011;13176;51.140;6.290;2022-08-01T15:41:36;19.60;;;17.95;;